Carmichael, Mississippi
Current Conditions -  °F | °C
As of 7:53 PM on Friday 24 Oct 2014 (Local Time) from KHBG Reporting Station
Clear Clear  
Wind Chill: 56°   Ceiling: Unl
Heat Index: 56°   Visibility: 10mi
Dew Point: 51°   Wind: 0mph
Humidity: 84%   Direction: NA
Pressure: 30.09"   Gusts: NA
Location:  31.0408°N, 88.8997°W
Report Text: KHBG 250053Z AUTO 00000KT 10SM CLR 13/11 A3009 RMK AO2 SLP187 T01330106
Loading
Personal Weather Stations






























Interactive Weather Map
Tropical Storm Tracking
New forecast layout! Learn more

10-Day Weather Forecast

Advertisements
Track Severe Weather on mobile